Time;durP1;ratioP1;P1;durP2;ratioP2;P2;SDS_P1;SDS_P2;PMS_P1;PMS_P2;Temp;Humidity;BMP_temperature;BMP_pressure;BME280_temperature;BME280_humidity;BME280_pressure;Samples;Min_cycle;Max_cycle;Signal;HPM_P1;HPM_P2
2022/03/19 00:01:40;;;;;;;4.90;2.78;;;10.10;73.00;;;;;;5043334;28;20176;-75
2022/03/19 00:04:05;;;;;;;3.80;3.00;;;10.10;73.20;;;;;;5050541;28;20205;-75
2022/03/19 00:06:37;;;;;;;5.30;3.27;;;10.10;73.50;;;;;;5050651;28;20262;-76
2022/03/19 00:09:05;;;;;;;2.78;2.40;;;10.00;74.90;;;;;;5055668;28;20185;-76
2022/03/19 00:11:31;;;;;;;3.90;3.00;;;9.90;75.30;;;;;;5050204;28;20173;-76
2022/03/19 00:13:57;;;;;;;4.45;3.25;;;9.90;78.90;;;;;;5051664;28;20177;-76
2022/03/19 00:16:24;;;;;;;4.47;3.13;;;9.90;77.20;;;;;;5051860;28;20628;-76
2022/03/19 00:18:50;;;;;;;8.65;3.95;;;9.90;77.50;;;;;;5051772;28;20602;-76
2022/03/19 00:21:16;;;;;;;7.77;4.00;;;9.80;78.20;;;;;;5051436;28;20188;-76
2022/03/19 00:23:42;;;;;;;5.65;3.25;;;9.80;78.50;;;;;;5051510;28;20169;-77
2022/03/19 00:26:08;;;;;;;4.27;3.67;;;9.80;78.40;;;;;;5050534;28;20215;-75
2022/03/19 00:28:36;;;;;;;4.30;3.40;;;9.80;79.30;;;;;;5051726;28;20568;-76
2022/03/19 00:31:02;;;;;;;6.95;4.70;;;9.80;79.00;;;;;;5050213;28;20207;-76
2022/03/19 00:33:28;;;;;;;4.80;3.13;;;9.80;79.80;;;;;;5051464;28;20165;-76
2022/03/19 00:35:54;;;;;;;6.30;2.93;;;9.70;80.00;;;;;;5051851;28;20180;-76
2022/03/19 00:38:20;;;;;;;5.17;3.20;;;9.70;80.20;;;;;;5051416;28;20184;-76
2022/03/19 00:40:46;;;;;;;7.43;3.70;;;9.70;81.10;;;;;;5051088;28;20172;-76
2022/03/19 00:43:11;;;;;;;5.27;3.33;;;9.60;81.00;;;;;;5051545;28;20169;-76
2022/03/19 00:45:37;;;;;;;5.40;3.53;;;9.60;81.10;;;;;;5053079;28;20677;-76
2022/03/19 00:48:03;;;;;;;6.70;3.40;;;9.60;81.70;;;;;;5054822;28;20291;-76
2022/03/19 00:50:29;;;;;;;7.50;3.60;;;9.50;81.70;;;;;;5051093;28;20641;-76
2022/03/19 00:52:55;;;;;;;5.00;3.77;;;9.50;82.10;;;;;;5050076;28;20571;-76
2022/03/19 00:55:20;;;;;;;7.70;4.33;;;9.40;82.20;;;;;;5051554;28;20572;-76
2022/03/19 00:57:47;;;;;;;4.20;3.77;;;9.40;82.60;;;;;;5051212;28;20193;-76
2022/03/19 01:00:15;;;;;;;4.65;3.53;;;9.30;82.90;;;;;;5047175;28;20172;-76
2022/03/19 01:02:42;;;;;;;6.20;3.13;;;9.30;83.30;;;;;;5048068;28;20185;-74
2022/03/19 01:05:09;;;;;;;4.82;3.47;;;9.20;83.70;;;;;;5044467;28;20227;-76
2022/03/19 01:07:43;;;;;;;4.30;2.83;;;9.20;84.10;;;;;;5047410;28;20203;-75
2022/03/19 01:10:10;;;;;;;5.80;3.08;;;9.10;85.00;;;;;;5044265;28;20169;-75
2022/03/19 01:12:36;;;;;;;2.85;2.40;;;9.10;84.70;;;;;;5050210;28;20176;-75
2022/03/19 01:15:02;;;;;;;4.47;2.60;;;9.10;85.10;;;;;;5051128;28;20165;-76
2022/03/19 01:17:29;;;;;;;4.13;2.67;;;9.00;85.40;;;;;;5051175;28;20365;-75
2022/03/19 01:19:58;;;;;;;5.57;3.50;;;9.00;85.70;;;;;;5050679;28;20248;-76
2022/03/19 01:22:24;;;;;;;5.25;3.00;;;9.00;86.10;;;;;;5055216;28;20173;-76
2022/03/19 01:24:50;;;;;;;7.80;4.00;;;8.90;86.60;;;;;;5058715;28;20254;-76
2022/03/19 01:27:16;;;;;;;4.50;2.90;;;8.90;87.10;;;;;;5054971;28;20188;-76
2022/03/19 01:29:42;;;;;;;6.32;3.72;;;8.90;87.40;;;;;;5054678;28;20169;-76
2022/03/19 01:32:09;;;;;;;5.40;3.50;;;8.90;87.50;;;;;;5054973;28;20165;-76
2022/03/19 01:34:34;;;;;;;3.85;2.85;;;8.80;88.00;;;;;;5054677;28;20570;-75
2022/03/19 01:37:00;;;;;;;4.50;2.90;;;8.80;88.20;;;;;;5053349;28;20229;-74
2022/03/19 01:39:26;;;;;;;4.32;2.88;;;8.80;88.70;;;;;;5054626;28;20683;-75
2022/03/19 01:41:52;;;;;;;5.50;2.87;;;8.80;88.90;;;;;;5054360;28;20193;-75
2022/03/19 01:44:19;;;;;;;4.22;3.53;;;8.80;89.80;;;;;;5053173;28;20284;-74
2022/03/19 01:47:14;;;;;;;4.78;3.20;;;8.70;90.00;;;;;;5054338;28;20201;-76
2022/03/19 01:49:40;;;;;;;3.72;2.60;;;8.70;90.60;;;;;;5036293;28;20730;-75
2022/03/19 01:52:06;;;;;;;5.32;2.92;;;8.70;90.10;;;;;;5052878;28;20219;-76
2022/03/19 01:54:34;;;;;;;3.28;2.63;;;8.70;90.40;;;;;;5054296;28;20173;-75
2022/03/19 01:57:02;;;;;;;7.78;3.33;;;8.60;90.50;;;;;;5054312;28;20654;-75
2022/03/19 01:59:32;;;;;;;5.45;3.47;;;8.60;90.60;;;;;;5053166;28;20177;-75
2022/03/19 02:01:59;;;;;;;4.28;3.05;;;8.60;91.00;;;;;;5057078;28;20173;-75
2022/03/19 02:04:24;;;;;;;5.18;3.28;;;8.50;91.00;;;;;;5053043;28;20827;-75
2022/03/19 02:06:51;;;;;;;6.40;2.90;;;8.50;91.10;;;;;;5054004;28;20239;-76
2022/03/19 02:09:17;;;;;;;6.82;2.50;;;8.40;91.20;;;;;;5054052;28;20248;-75
2022/03/19 02:11:42;;;;;;;4.60;3.00;;;8.40;91.40;;;;;;5053808;28;20253;-75
2022/03/19 02:14:08;;;;;;;5.07;3.60;;;8.30;91.40;;;;;;5053856;28;20227;-76
2022/03/19 02:16:34;;;;;;;6.23;3.03;;;8.30;91.60;;;;;;5069350;28;20701;-76
2022/03/19 02:19:00;;;;;;;6.53;3.63;;;8.30;91.80;;;;;;5054008;28;20259;-76
2022/03/19 02:21:26;;;;;;;7.45;3.33;;;8.30;92.00;;;;;;5053497;28;20200;-76
2022/03/19 02:26:44;;;;;;;4.45;2.70;;;8.20;92.60;;;;;;5053760;28;20208;-76
2022/03/19 02:29:11;;;;;;;7.45;3.55;;;8.20;92.30;;;;;;5052469;28;20157;-76
2022/03/19 02:31:41;;;;;;;5.30;3.00;;;8.20;92.50;;;;;;5053302;28;20173;-76
2022/03/19 02:34:10;;;;;;;7.05;3.47;;;8.20;92.80;;;;;;5052481;28;20252;-76
2022/03/19 02:36:37;;;;;;;4.72;2.80;;;8.10;92.70;;;;;;5053811;28;20192;-76
2022/03/19 02:39:19;;;;;;;4.15;3.50;;;8.10;92.90;;;;;;5057856;28;20234;-76
2022/03/19 02:41:49;;;;;;;6.32;3.45;;;8.10;93.40;;;;;;5053319;28;20215;-76
2022/03/19 02:44:17;;;;;;;5.40;3.53;;;8.00;93.20;;;;;;5053514;28;20560;-76
2022/03/19 02:46:48;;;;;;;5.75;3.50;;;8.00;93.30;;;;;;5052009;28;20197;-75
2022/03/19 02:49:16;;;;;;;5.72;3.83;;;8.00;93.40;;;;;;5050484;28;20625;-75
2022/03/19 02:51:43;;;;;;;6.65;3.70;;;7.90;93.50;;;;;;5053197;28;20633;-76
2022/03/19 02:54:11;;;;;;;7.15;3.50;;;7.90;93.60;;;;;;5053594;28;20176;-75
2022/03/19 02:56:38;;;;;;;9.57;4.60;;;7.90;93.90;;;;;;5052914;28;20888;-76
2022/03/19 02:59:05;;;;;;;7.00;3.60;;;7.80;94.00;;;;;;5045683;28;20179;-76
2022/03/19 03:01:31;;;;;;;7.07;3.90;;;7.80;94.10;;;;;;5044358;28;20169;-76
2022/03/19 03:03:57;;;;;;;9.40;3.97;;;7.80;94.30;;;;;;5052418;28;20205;-76
2022/03/19 03:06:22;;;;;;;7.33;3.80;;;7.70;94.40;;;;;;5043225;28;20200;-76
2022/03/19 03:08:48;;;;;;;6.40;3.90;;;7.70;94.50;;;;;;5052014;28;20173;-76
2022/03/19 03:11:14;;;;;;;4.97;4.13;;;7.70;94.70;;;;;;5052688;28;20165;-75
2022/03/19 03:13:40;;;;;;;6.68;4.00;;;7.60;94.80;;;;;;5053181;28;20218;-75
2022/03/19 03:16:06;;;;;;;6.03;3.93;;;7.60;94.90;;;;;;5057069;28;20173;-76
2022/03/19 03:18:31;;;;;;;7.70;3.87;;;7.60;95.10;;;;;;5052716;28;20165;-75
2022/03/19 03:20:59;;;;;;;5.00;3.47;;;7.60;95.30;;;;;;5051055;28;20256;-75
2022/03/19 03:23:26;;;;;;;6.00;3.83;;;7.50;95.40;;;;;;5052629;28;20256;-76
2022/03/19 03:25:52;;;;;;;5.22;3.45;;;7.50;95.50;;;;;;5051370;28;20215;-76
2022/03/19 03:28:18;;;;;;;8.93;3.13;;;7.50;95.70;;;;;;5052562;28;20231;-76
2022/03/19 03:30:44;;;;;;;5.50;3.17;;;7.50;95.80;;;;;;5052281;28;20189;-75
2022/03/19 03:33:10;;;;;;;6.07;2.75;;;7.50;95.90;;;;;;5052664;28;20165;-76
2022/03/19 03:35:35;;;;;;;6.00;3.43;;;7.50;96.10;;;;;;5052692;28;20177;-75
2022/03/19 03:38:01;;;;;;;7.57;3.90;;;7.50;96.20;;;;;;5034753;28;20196;-76
2022/03/19 03:40:27;;;;;;;9.10;2.90;;;7.50;96.30;;;;;;5050768;28;20200;-75
2022/03/19 03:42:54;;;;;;;5.93;3.37;;;7.50;96.50;;;;;;5051902;28;20564;-75
2022/03/19 03:45:20;;;;;;;5.22;3.05;;;7.50;96.70;;;;;;5051314;28;20588;-75
2022/03/19 03:47:46;;;;;;;6.28;2.30;;;7.50;96.70;;;;;;5054978;28;20818;-75
2022/03/19 03:50:12;;;;;;;6.17;2.63;;;7.60;96.80;;;;;;5059972;28;20169;-75
2022/03/19 03:52:38;;;;;;;3.70;3.03;;;7.60;96.70;;;;;;5058774;28;20564;-76
2022/03/19 03:55:06;;;;;;;4.77;2.67;;;7.60;96.80;;;;;;5057174;28;20173;-75
2022/03/19 03:57:36;;;;;;;4.47;2.95;;;7.60;97.00;;;;;;5054379;28;20968;-75
2022/03/19 04:00:03;;;;;;;4.43;2.70;;;7.60;97.10;;;;;;5054823;28;20203;-75
2022/03/19 04:02:38;;;;;;;5.05;2.97;;;7.60;97.10;;;;;;5056232;28;20186;-74
2022/03/19 04:05:10;;;;;;;6.32;2.45;;;7.60;97.00;;;;;;5054423;28;20201;-75
2022/03/19 04:07:36;;;;;;;4.22;2.35;;;7.60;97.10;;;;;;5056656;28;20275;-75
2022/03/19 04:10:03;;;;;;;3.83;2.10;;;7.60;97.10;;;;;;5060746;28;20180;-74
2022/03/19 04:12:29;;;;;;;8.20;2.15;;;7.60;97.10;;;;;;5055700;28;20256;-75
2022/03/19 04:14:55;;;;;;;7.50;2.27;;;7.60;97.50;;;;;;5053540;28;20246;-76
2022/03/19 04:17:20;;;;;;;3.90;2.17;;;7.60;97.20;;;;;;5051795;28;20200;-75
2022/03/19 04:19:46;;;;;;;4.57;2.33;;;7.50;97.20;;;;;;5051730;28;20179;-75
2022/03/19 04:22:12;;;;;;;5.57;2.23;;;7.50;97.30;;;;;;5052222;28;20169;-75
2022/03/19 04:24:38;;;;;;;5.80;2.77;;;7.50;97.30;;;;;;5051996;28;20197;-75
2022/03/19 04:27:04;;;;;;;5.40;2.40;;;7.50;97.40;;;;;;5052042;28;20602;-75
2022/03/19 04:29:30;;;;;;;5.88;2.70;;;7.50;97.50;;;;;;5055560;28;20174;-75
2022/03/19 04:31:57;;;;;;;3.67;2.15;;;7.40;97.50;;;;;;5051604;28;20262;-75
2022/03/19 04:34:23;;;;;;;5.55;3.15;;;7.40;97.60;;;;;;5051707;28;20586;-75
2022/03/19 04:36:50;;;;;;;6.25;3.10;;;7.40;97.70;;;;;;5051769;28;20185;-74
2022/03/19 04:39:16;;;;;;;6.97;2.97;;;7.30;97.80;;;;;;5067120;28;20184;-75
2022/03/19 04:41:42;;;;;;;5.90;3.37;;;7.30;97.90;;;;;;5051353;28;20185;-75
2022/03/19 04:44:09;;;;;;;7.60;2.43;;;7.30;98.00;;;;;;5051374;28;20283;-75
2022/03/19 04:46:35;;;;;;;4.38;2.60;;;7.20;98.10;;;;;;5033389;28;20209;-76
2022/03/19 04:49:01;;;;;;;4.65;3.00;;;7.30;98.20;;;;;;5051585;28;20165;-76
2022/03/19 04:51:30;;;;;;;4.73;2.80;;;7.20;98.30;;;;;;5051158;28;20192;-75
2022/03/19 04:53:56;;;;;;;4.28;2.20;;;7.20;98.50;;;;;;5050168;28;20610;-75
2022/03/19 04:56:27;;;;;;;5.85;2.53;;;7.20;98.40;;;;;;5055030;28;20581;-75
2022/03/19 04:58:55;;;;;;;6.68;1.95;;;7.20;98.80;;;;;;5055595;28;20173;-75
2022/03/19 05:01:24;;;;;;;3.25;2.28;;;7.10;98.60;;;;;;5053796;28;20200;-75
2022/03/19 05:03:49;;;;;;;5.75;3.08;;;7.10;98.70;;;;;;5054211;28;20171;-75
2022/03/19 05:06:15;;;;;;;4.90;3.00;;;7.10;98.90;;;;;;5059860;28;20180;-75
2022/03/19 05:08:41;;;;;;;5.93;2.35;;;7.10;98.90;;;;;;5054087;28;20195;-76
2022/03/19 05:11:13;;;;;;;5.57;2.47;;;7.00;99.10;;;;;;5070133;28;20633;-76
2022/03/19 05:13:40;;;;;;;3.65;2.45;;;7.00;99.20;;;;;;5055089;28;20168;-76
2022/03/19 05:16:05;;;;;;;5.05;2.40;;;7.00;99.20;;;;;;5055117;28;20172;-77
2022/03/19 05:18:31;;;;;;;4.23;2.20;;;7.00;99.30;;;;;;5053550;28;20165;-76
2022/03/19 05:20:57;;;;;;;4.73;2.57;;;7.00;99.40;;;;;;5053461;28;20219;-76
2022/03/19 05:23:23;;;;;;;3.80;2.60;;;7.00;99.60;;;;;;5053723;28;20599;-75
2022/03/19 05:25:50;;;;;;;5.38;2.67;;;6.90;99.60;;;;;;5037137;28;20665;-76
2022/03/19 05:28:16;;;;;;;7.00;2.83;;;6.90;99.70;;;;;;5055018;28;20209;-76
2022/03/19 05:30:42;;;;;;;4.70;2.73;;;6.90;99.80;;;;;;5054582;28;20575;-76
2022/03/19 05:33:08;;;;;;;5.90;3.13;;;6.90;99.90;;;;;;5053469;28;20169;-76
2022/03/19 05:35:34;;;;;;;5.17;2.57;;;6.90;99.90;;;;;;5053456;28;20609;-76
2022/03/19 05:38:00;;;;;;;3.15;2.47;;;6.90;99.90;;;;;;5054707;28;20603;-76
2022/03/19 05:40:28;;;;;;;3.88;2.75;;;6.90;99.90;;;;;;5053659;28;20181;-76
2022/03/19 05:42:54;;;;;;;4.20;2.58;;;6.90;99.90;;;;;;5059239;28;20161;-77
2022/03/19 05:45:21;;;;;;;4.88;3.10;;;6.90;99.90;;;;;;5070244;28;20207;-76
2022/03/19 05:47:47;;;;;;;5.85;2.88;;;6.80;99.90;;;;;;5054303;28;20207;-75
2022/03/19 05:50:14;;;;;;;6.57;3.88;;;6.80;99.90;;;;;;5053054;28;20168;-75
2022/03/19 05:52:40;;;;;;;5.38;2.80;;;6.80;99.90;;;;;;5054561;28;20260;-75
2022/03/19 05:55:08;;;;;;;4.13;3.17;;;6.80;99.90;;;;;;5053195;28;20259;-75
2022/03/19 05:57:34;;;;;;;5.05;3.00;;;6.90;99.90;;;;;;5054339;28;20200;-75
2022/03/19 06:00:00;;;;;;;7.40;3.10;;;6.90;99.90;;;;;;5069615;28;20248;-75
2022/03/19 06:02:26;;;;;;;5.45;2.92;;;6.90;99.90;;;;;;5054309;28;20172;-75
2022/03/19 06:04:53;;;;;;;6.17;3.00;;;6.90;99.90;;;;;;5054279;28;20554;-76
2022/03/19 06:07:18;;;;;;;5.90;3.75;;;6.90;99.90;;;;;;5053636;28;20591;-75
2022/03/19 06:09:44;;;;;;;9.20;3.30;;;6.90;99.90;;;;;;5052157;28;20180;-76
2022/03/19 06:14:53;;;;;;;6.20;3.17;;;6.90;99.90;;;;;;5082223;28;20259;-78
2022/03/19 06:17:19;;;;;;;10.23;3.25;;;6.90;99.90;;;;;;5085782;28;20250;-78
2022/03/19 06:19:45;;;;;;;5.38;3.25;;;7.00;99.90;;;;;;5090358;28;20163;-78
2022/03/19 06:22:11;;;;;;;4.80;3.53;;;7.00;99.90;;;;;;5085690;28;20591;-78
2022/03/19 06:24:37;;;;;;;3.90;2.90;;;7.00;99.90;;;;;;5075480;28;20629;-78
2022/03/19 06:27:03;;;;;;;5.97;3.07;;;7.10;99.90;;;;;;5079154;28;20164;-78
2022/03/19 06:29:29;;;;;;;7.47;2.95;;;7.20;99.90;;;;;;5070709;28;20176;-79
2022/03/19 06:31:55;;;;;;;7.45;3.38;;;7.20;99.90;;;;;;5070224;28;20165;-78
2022/03/19 06:34:21;;;;;;;4.10;3.33;;;7.20;99.90;;;;;;5081344;28;20287;-78
2022/03/19 06:39:31;;;;;;;5.35;3.70;;;7.30;99.90;;;;;;5073545;28;20207;-79
2022/03/19 06:41:57;;;;;;;5.33;3.67;;;7.40;99.90;;;;;;5073105;28;20177;-80
2022/03/19 06:44:23;;;;;;;4.88;3.00;;;7.50;99.90;;;;;;5072239;28;20642;-80
2022/03/19 06:46:49;;;;;;;4.13;2.83;;;7.50;99.90;;;;;;5070502;28;20172;-80
2022/03/19 06:49:14;;;;;;;5.93;3.20;;;7.60;99.90;;;;;;5038767;28;20176;-79
2022/03/19 06:51:40;;;;;;;3.77;3.30;;;7.70;99.90;;;;;;5072933;28;20559;-80
2022/03/19 06:54:06;;;;;;;4.40;3.43;;;7.80;99.90;;;;;;5073055;28;20614;-79
2022/03/19 06:56:32;;;;;;;3.22;2.63;;;7.80;99.90;;;;;;5055045;28;20180;-80
2022/03/19 06:58:58;;;;;;;3.72;2.75;;;7.90;99.90;;;;;;5038261;28;20168;-80
2022/03/19 07:01:24;;;;;;;4.97;2.70;;;8.00;99.90;;;;;;5050512;28;20243;-80
2022/03/19 07:03:49;;;;;;;4.33;3.20;;;8.10;99.90;;;;;;5037818;28;20192;-80
2022/03/19 07:06:18;;;;;;;6.80;2.92;;;8.20;99.90;;;;;;5054339;28;20165;-80
2022/03/19 07:08:45;;;;;;;5.65;2.83;;;8.30;99.90;;;;;;5054818;28;20179;-79
2022/03/19 07:11:11;;;;;;;4.82;2.95;;;8.40;99.90;;;;;;5054458;28;20164;-80
2022/03/19 07:13:37;;;;;;;4.03;3.05;;;8.50;99.90;;;;;;5078152;28;20195;-79
2022/03/19 07:16:04;;;;;;;5.18;2.40;;;8.60;99.90;;;;;;5072333;28;20271;-79
2022/03/19 07:18:31;;;;;;;4.50;2.05;;;8.70;99.90;;;;;;5053543;28;20188;-80
2022/03/19 07:20:56;;;;;;;3.87;2.80;;;8.80;99.90;;;;;;5055135;28;20705;-80
2022/03/19 07:23:22;;;;;;;2.80;2.37;;;8.90;99.90;;;;;;5038158;28;20192;-79
2022/03/19 07:25:48;;;;;;;4.47;2.87;;;9.10;99.90;;;;;;5072415;28;20249;-79
2022/03/19 07:28:15;;;;;;;4.70;2.90;;;9.20;99.90;;;;;;5074290;28;20571;-79
2022/03/19 07:30:41;;;;;;;6.22;2.70;;;9.30;99.90;;;;;;5038040;28;20214;-79
2022/03/19 07:33:08;;;;;;;5.03;2.50;;;9.50;99.90;;;;;;5072810;28;20176;-81
2022/03/19 07:35:34;;;;;;;6.10;2.70;;;9.60;99.90;;;;;;5054509;28;20530;-79
2022/03/19 07:38:02;;;;;;;3.50;3.00;;;9.90;99.90;;;;;;5056139;28;20176;-79
2022/03/19 07:43:14;;;;;;;4.28;2.10;;;11.20;99.90;;;;;;5097153;28;20191;-80
2022/03/19 07:45:41;;;;;;;2.83;2.07;;;12.30;99.90;;;;;;5067578;28;20203;-79
2022/03/19 07:48:07;;;;;;;6.37;2.30;;;13.50;99.90;;;;;;5070566;28;20590;-80
2022/03/19 07:50:34;;;;;;;6.73;2.00;;;14.80;99.90;;;;;;5068022;28;20619;-80
2022/03/19 07:53:00;;;;;;;6.90;2.90;;;16.10;99.90;;;;;;5085212;28;20676;-81
2022/03/19 07:55:26;;;;;;;4.90;1.90;;;17.30;99.90;;;;;;5067069;28;20606;-81
2022/03/19 07:57:52;;;;;;;2.00;1.40;;;18.40;99.90;;;;;;5061358;28;20586;-81
2022/03/19 08:00:18;;;;;;;2.67;1.70;;;19.50;99.90;;;;;;5069289;28;20151;-80
2022/03/19 08:02:46;;;;;;;3.30;1.90;;;20.60;99.90;;;;;;5074098;28;20630;-81
2022/03/19 08:05:12;;;;;;;3.93;1.57;;;21.60;99.90;;;;;;5067834;28;20663;-81
2022/03/19 08:07:39;;;;;;;3.10;1.70;;;22.50;99.30;;;;;;5094152;28;20613;-81
2022/03/19 08:10:08;;;;;;;4.00;1.60;;;23.40;97.80;;;;;;5094091;28;20578;-81
2022/03/19 08:12:38;;;;;;;3.60;1.60;;;24.20;96.00;;;;;;5090413;28;20595;-81
2022/03/19 08:15:06;;;;;;;1.93;1.10;;;24.70;91.70;;;;;;5094295;28;20658;-80
2022/03/19 08:17:32;;;;;;;2.87;1.57;;;25.00;85.90;;;;;;5094815;28;20611;-81
2022/03/19 08:19:59;;;;;;;3.10;1.60;;;25.30;82.60;;;;;;5093619;28;20602;-81
2022/03/19 08:22:26;;;;;;;3.27;1.73;;;25.20;75.20;;;;;;5073561;28;20614;-82
2022/03/19 08:24:52;;;;;;;3.33;1.63;;;25.40;70.40;;;;;;5065379;28;20621;-81
2022/03/19 08:27:23;;;;;;;4.37;1.30;;;25.30;67.50;;;;;;5066425;28;20909;-81
2022/03/19 08:29:49;;;;;;;3.73;1.50;;;25.50;68.50;;;;;;5087583;28;20574;-81
2022/03/19 08:32:15;;;;;;;3.40;1.50;;;25.90;68.10;;;;;;5068065;28;20570;-82
2022/03/19 08:34:42;;;;;;;3.53;1.67;;;26.40;68.10;;;;;;5081405;28;20176;-82
2022/03/19 08:37:07;;;;;;;2.87;1.30;;;26.90;67.10;;;;;;5081397;28;20313;-82
2022/03/19 08:42:17;;;;;;;5.53;1.70;;;27.70;64.10;;;;;;5075123;28;20179;-81
2022/03/19 08:44:43;;;;;;;3.77;2.00;;;28.20;59.70;;;;;;5043713;28;20622;-81
2022/03/19 08:47:09;;;;;;;4.67;2.00;;;28.40;57.00;;;;;;5077638;28;20230;-81
2022/03/19 08:49:35;;;;;;;3.23;1.10;;;28.10;51.80;;;;;;5056033;28;20213;-81
2022/03/19 08:52:01;;;;;;;3.87;1.40;;;27.80;50.60;;;;;;5055767;28;20172;-81
2022/03/19 08:54:27;;;;;;;2.83;1.50;;;27.50;50.70;;;;;;5039584;28;20191;-80
2022/03/19 08:56:52;;;;;;;3.07;1.50;;;27.30;50.30;;;;;;5074583;28;20570;-81
2022/03/19 08:59:22;;;;;;;3.17;1.50;;;27.00;50.80;;;;;;5075048;28;20168;-80
2022/03/19 09:05:59;;;;;;;2.93;1.50;;;26.20;48.10;;;;;;5056804;28;21020;-80
2022/03/19 09:08:26;;;;;;;3.03;1.50;;;25.90;42.70;;;;;;5058917;28;21126;-80
2022/03/19 09:10:52;;;;;;;3.17;1.23;;;25.90;49.40;;;;;;5072279;28;20575;-80
2022/03/19 09:13:18;;;;;;;3.00;1.53;;;26.10;49.80;;;;;;5071514;28;20621;-81
2022/03/19 09:15:44;;;;;;;2.67;1.30;;;26.30;49.30;;;;;;5065002;28;20591;-81
2022/03/19 09:18:09;;;;;;;6.47;2.10;;;26.50;49.10;;;;;;5037606;28;20595;-81
2022/03/19 09:20:35;;;;;;;3.70;1.60;;;26.90;49.00;;;;;;5053195;28;20737;-81
2022/03/19 09:23:02;;;;;;;3.63;1.20;;;27.20;47.50;;;;;;5053311;28;20184;-80
2022/03/19 09:25:28;;;;;;;4.37;1.70;;;27.50;48.90;;;;;;5081104;28;20327;-81
2022/03/19 09:27:54;;;;;;;7.17;2.17;;;28.00;48.90;;;;;;5085845;28;20684;-81
2022/03/19 09:30:19;;;;;;;1.80;1.20;;;28.20;47.70;;;;;;5082947;28;20588;-82
2022/03/19 09:32:45;;;;;;;3.50;1.27;;;28.40;47.60;;;;;;5057131;28;20183;-82
2022/03/19 09:35:11;;;;;;;3.60;1.60;;;28.60;46.10;;;;;;5050440;28;20165;-81
2022/03/19 09:37:37;;;;;;;4.50;1.27;;;28.40;43.30;;;;;;5083670;28;20692;-82
2022/03/19 09:40:04;;;;;;;2.63;1.50;;;28.40;44.10;;;;;;5072023;28;20211;-82
2022/03/19 09:42:31;;;;;;;3.27;1.23;;;28.50;44.70;;;;;;5081134;28;20566;-82
2022/03/19 09:44:58;;;;;;;3.10;1.80;;;28.50;43.70;;;;;;5084339;28;20609;-83
2022/03/19 09:47:26;;;;;;;3.13;1.27;;;28.40;42.40;;;;;;5084053;28;20585;-82
2022/03/19 09:49:52;;;;;;;2.73;1.60;;;28.50;43.20;;;;;;5085716;28;20666;-82
2022/03/19 09:52:20;;;;;;;3.37;1.30;;;28.70;43.00;;;;;;5071515;28;20590;-82
2022/03/19 09:54:46;;;;;;;2.50;1.03;;;28.70;43.10;;;;;;5061653;28;20594;-83
2022/03/19 09:57:12;;;;;;;3.73;1.20;;;28.70;43.40;;;;;;5073478;28;20590;-84
2022/03/19 09:59:38;;;;;;;2.87;1.20;;;29.00;43.70;;;;;;5054215;28;20573;-83
2022/03/19 10:02:06;;;;;;;3.50;1.83;;;29.30;43.30;;;;;;5078826;28;20590;-83
2022/03/19 10:04:31;;;;;;;2.90;1.20;;;29.70;43.00;;;;;;5084377;28;20731;-83
2022/03/19 10:09:48;;;;;;;2.57;1.40;;;29.80;41.80;;;;;;5083826;28;20185;-79
2022/03/19 10:12:22;;;;;;;2.73;1.10;;;29.50;38.00;;;;;;5070127;28;20641;-78
2022/03/19 10:14:55;;;;;;;2.80;1.50;;;29.20;37.60;;;;;;5071118;28;20609;-79
2022/03/19 10:17:32;;;;;;;2.33;1.53;;;29.20;39.10;;;;;;5055923;28;20586;-78
2022/03/19 10:20:20;;;;;;;3.40;1.37;;;29.30;38.80;;;;;;5055404;28;21244;-78
2022/03/19 10:22:46;;;;;;;3.83;1.23;;;29.40;39.30;;;;;;5073686;28;20620;-78
2022/03/19 10:25:17;;;;;;;2.27;1.00;;;29.60;39.90;;;;;;5055799;28;20657;-78
2022/03/19 10:27:44;;;;;;;2.27;1.33;;;29.50;38.30;;;;;;5068341;28;21117;-78
2022/03/19 10:30:16;;;;;;;2.37;1.20;;;29.50;37.70;;;;;;5067647;28;21099;-78
2022/03/19 10:32:46;;;;;;;2.80;1.40;;;29.50;35.60;;;;;;5073450;28;20614;-78
2022/03/19 10:35:35;;;;;;;1.83;1.10;;;29.30;36.30;;;;;;5066822;28;20583;-78
2022/03/19 10:38:07;;;;;;;2.50;1.10;;;28.80;36.30;;;;;;5053385;28;20915;-78
2022/03/19 10:40:40;;;;;;;2.77;1.53;;;28.50;37.00;;;;;;5053361;28;20915;-77
2022/03/19 10:43:10;;;;;;;1.77;0.90;;;28.40;37.30;;;;;;5035391;28;20610;-77
2022/03/19 10:45:44;;;;;;;3.00;1.50;;;28.30;37.60;;;;;;5053414;28;20611;-77
2022/03/19 10:48:12;;;;;;;1.97;0.90;;;28.30;37.50;;;;;;5053302;28;20586;-77
2022/03/19 10:50:41;;;;;;;2.53;1.00;;;28.30;36.50;;;;;;5051579;28;20580;-77
2022/03/19 10:53:08;;;;;;;2.90;1.30;;;28.20;36.40;;;;;;5052045;28;20595;-77
2022/03/19 10:55:33;;;;;;;2.50;1.10;;;28.10;35.70;;;;;;5053651;28;20570;-77
2022/03/19 10:57:59;;;;;;;3.40;1.10;;;28.00;36.30;;;;;;5053102;28;20953;-77
2022/03/19 11:00:25;;;;;;;3.33;1.10;;;27.90;36.00;;;;;;5052786;28;20564;-77
2022/03/19 11:02:57;;;;;;;2.83;1.00;;;27.90;36.60;;;;;;5052960;28;20185;-77
2022/03/19 11:05:24;;;;;;;1.83;0.83;;;27.90;35.90;;;;;;5052003;28;20680;-77
2022/03/19 11:07:54;;;;;;;2.83;0.90;;;27.80;35.20;;;;;;5053177;28;20949;-76
2022/03/19 11:10:21;;;;;;;1.80;0.80;;;27.70;32.20;;;;;;5052849;28;20620;-77
2022/03/19 11:12:50;;;;;;;2.43;1.00;;;27.10;32.90;;;;;;5051888;28;20658;-77
2022/03/19 11:15:20;;;;;;;2.20;0.90;;;26.80;32.50;;;;;;5057128;28;20571;-77
2022/03/19 11:17:50;;;;;;;2.30;0.80;;;26.70;32.60;;;;;;5055439;28;20563;-77
2022/03/19 11:20:16;;;;;;;1.93;0.80;;;26.40;32.10;;;;;;5054880;28;20972;-76
2022/03/19 11:22:52;;;;;;;1.83;0.80;;;26.20;32.90;;;;;;5055189;28;20638;-76
2022/03/19 11:25:44;;;;;;;3.00;0.70;;;25.80;30.40;;;;;;5055823;28;20614;-76
2022/03/19 11:28:12;;;;;;;1.97;0.80;;;25.20;27.20;;;;;;5054306;28;20940;-76
2022/03/19 11:30:47;;;;;;;2.33;0.83;;;25.10;29.90;;;;;;5052740;28;20571;-77
2022/03/19 11:33:20;;;;;;;1.47;0.57;;;24.70;28.50;;;;;;5055424;28;20599;-76
2022/03/19 11:36:01;;;;;;;2.23;0.60;;;24.30;28.20;;;;;;5054390;28;21157;-76
2022/03/19 11:38:29;;;;;;;2.10;1.00;;;23.80;28.50;;;;;;5053401;28;20586;-76
2022/03/19 11:41:00;;;;;;;1.97;0.87;;;23.50;28.30;;;;;;5053330;28;20564;-76
2022/03/19 11:43:32;;;;;;;2.07;0.50;;;23.40;28.60;;;;;;5052042;28;20614;-76
2022/03/19 11:46:03;;;;;;;2.33;0.60;;;23.20;28.90;;;;;;5072463;28;20662;-76
2022/03/19 11:48:37;;;;;;;2.50;0.67;;;23.20;28.90;;;;;;5072373;28;20575;-76
2022/03/19 11:51:24;;;;;;;1.90;0.70;;;23.10;26.80;;;;;;5070898;28;20555;-76
2022/03/19 11:54:03;;;;;;;2.27;0.87;;;22.70;27.20;;;;;;5044191;28;20670;-76
2022/03/19 11:56:41;;;;;;;1.93;0.60;;;22.70;27.10;;;;;;5069455;28;21008;-77
2022/03/19 11:59:16;;;;;;;1.30;0.60;;;22.50;27.70;;;;;;5071499;28;20586;-77
2022/03/19 12:01:48;;;;;;;1.80;0.63;;;22.50;28.20;;;;;;5072139;28;20720;-76
2022/03/19 12:04:18;;;;;;;1.53;0.63;;;22.60;27.60;;;;;;5071588;28;20630;-77
2022/03/19 12:06:51;;;;;;;2.47;0.63;;;22.70;27.90;;;;;;5070829;28;20567;-77
2022/03/19 12:09:18;;;;;;;1.60;0.60;;;22.70;28.30;;;;;;5075499;28;20665;-77
2022/03/19 12:12:22;;;;;;;2.20;0.57;;;22.70;28.30;;;;;;5071042;28;20937;-77
2022/03/19 12:14:49;;;;;;;1.30;0.60;;;22.70;28.20;;;;;;5061973;28;20578;-77
2022/03/19 12:17:29;;;;;;;1.80;0.67;;;22.70;28.20;;;;;;5071685;28;20558;-77
2022/03/19 12:20:07;;;;;;;2.83;0.60;;;22.70;28.60;;;;;;5071366;28;20569;-76
2022/03/19 12:22:40;;;;;;;1.60;0.70;;;22.80;29.20;;;;;;5053596;28;20606;-77
2022/03/19 12:25:39;;;;;;;1.63;0.60;;;22.90;29.10;;;;;;5071539;28;20618;-77
2022/03/19 12:28:05;;;;;;;1.30;0.60;;;22.90;29.00;;;;;;5045865;28;20598;-77
2022/03/19 12:30:35;;;;;;;1.40;0.73;;;22.90;27.80;;;;;;5071643;28;21125;-77
2022/03/19 12:33:01;;;;;;;1.60;0.83;;;22.50;27.30;;;;;;5071505;28;20222;-77
2022/03/19 12:35:43;;;;;;;1.50;0.50;;;22.30;27.20;;;;;;5071769;28;20598;-77
2022/03/19 12:38:09;;;;;;;1.63;0.60;;;22.20;28.60;;;;;;5071588;28;20169;-77
2022/03/19 12:43:21;;;;;;;1.50;0.50;;;22.00;27.30;;;;;;5053519;28;21058;-77
2022/03/19 12:45:53;;;;;;;3.90;0.70;;;22.00;28.40;;;;;;5054170;28;20641;-77
2022/03/19 12:48:29;;;;;;;2.40;0.57;;;21.90;28.00;;;;;;5074175;28;20583;-77
2022/03/19 12:50:58;;;;;;;1.80;0.50;;;21.80;26.60;;;;;;5070989;28;20563;-77
2022/03/19 12:53:39;;;;;;;1.87;0.57;;;21.60;26.40;;;;;;5053350;28;20686;-77
2022/03/19 12:56:20;;;;;;;3.07;0.67;;;21.50;27.00;;;;;;5071201;28;21072;-77
2022/03/19 12:58:50;;;;;;;2.53;0.50;;;21.30;26.20;;;;;;5036791;28;20677;-77
2022/03/19 13:01:24;;;;;;;1.67;0.53;;;21.30;26.60;;;;;;5069841;28;20582;-77
2022/03/19 13:03:56;;;;;;;1.20;0.40;;;21.20;27.10;;;;;;5067160;28;20623;-77
2022/03/19 13:06:36;;;;;;;1.33;0.50;;;20.90;26.50;;;;;;5053188;28;20587;-77
2022/03/19 13:09:04;;;;;;;1.90;0.70;;;20.80;26.10;;;;;;5062170;28;20583;-76
2022/03/19 13:11:48;;;;;;;1.57;0.50;;;20.80;27.70;;;;;;5070539;28;20920;-76
2022/03/19 13:14:14;;;;;;;2.10;0.60;;;20.70;27.70;;;;;;5050544;28;21264;-75
2022/03/19 13:16:43;;;;;;;1.63;0.80;;;20.70;28.20;;;;;;5038549;28;20590;-75
2022/03/19 13:19:09;;;;;;;1.83;0.97;;;20.60;27.20;;;;;;5074452;28;20598;-76
2022/03/19 13:21:37;;;;;;;1.40;0.53;;;20.50;27.60;;;;;;5056547;28;21105;-75